Time;durP1;ratioP1;P1;durP2;ratioP2;P2;SDS_P1;SDS_P2;PMS_P1;PMS_P2;Temp;Humidity;BMP_temperature;BMP_pressure;BME280_temperature;BME280_humidity;BME280_pressure;Samples;Min_cycle;Max_cycle;Signal;HPM_P1;HPM_P2
2021/09/21 00:01:09;;;;;;;4.27;3.63;;;10.90;99.90;;;;;;6245145;28;20331;-75
2021/09/21 00:04:12;;;;;;;3.27;2.97;;;10.90;99.90;;;;;;6244637;28;20184;-75
2021/09/21 00:07:14;;;;;;;3.87;3.47;;;10.90;99.90;;;;;;6245551;28;20267;-75
2021/09/21 00:10:17;;;;;;;3.43;3.13;;;10.90;99.90;;;;;;6245483;28;20290;-75
2021/09/21 00:13:20;;;;;;;3.90;3.43;;;10.80;99.90;;;;;;6227877;28;20541;-75
2021/09/21 00:16:22;;;;;;;2.80;2.60;;;10.80;99.90;;;;;;6243674;28;20659;-75
2021/09/21 00:19:24;;;;;;;3.43;3.13;;;10.80;99.90;;;;;;6245359;28;20559;-75
2021/09/21 00:22:27;;;;;;;4.17;3.63;;;10.80;99.90;;;;;;6243798;28;20216;-75
2021/09/21 00:25:29;;;;;;;4.47;3.10;;;10.80;99.90;;;;;;6227446;28;20275;-75
2021/09/21 00:28:31;;;;;;;3.37;3.07;;;10.80;99.90;;;;;;6227502;28;20274;-75
2021/09/21 00:31:41;;;;;;;4.77;3.50;;;10.70;99.90;;;;;;6245097;28;20198;-75
2021/09/21 00:34:43;;;;;;;3.90;3.50;;;10.70;99.90;;;;;;6244046;28;20827;-75
2021/09/21 00:37:45;;;;;;;4.93;3.83;;;10.70;99.90;;;;;;6245259;28;20286;-75
2021/09/21 00:40:49;;;;;;;3.93;3.53;;;10.70;99.90;;;;;;6229449;28;20193;-75
2021/09/21 00:43:51;;;;;;;5.13;3.60;;;10.70;99.90;;;;;;6249585;28;20684;-75
2021/09/21 00:46:53;;;;;;;5.00;3.43;;;10.70;99.90;;;;;;6232127;28;20196;-75
2021/09/21 00:49:56;;;;;;;4.77;3.40;;;10.70;99.90;;;;;;6249537;28;20532;-75
2021/09/21 00:53:00;;;;;;;3.80;3.33;;;10.70;99.90;;;;;;6249295;28;20228;-75
2021/09/21 00:56:02;;;;;;;5.07;3.40;;;10.70;99.90;;;;;;6249518;28;20222;-75
2021/09/21 00:59:05;;;;;;;4.03;3.63;;;10.70;99.90;;;;;;6231457;28;20208;-75
2021/09/21 01:02:08;;;;;;;4.00;3.53;;;10.70;99.90;;;;;;6239905;28;20232;-75
2021/09/21 01:05:11;;;;;;;4.60;3.37;;;10.70;99.90;;;;;;6224714;28;20216;-75
2021/09/21 01:08:13;;;;;;;3.87;3.50;;;10.70;99.90;;;;;;6223287;28;20284;-75
2021/09/21 01:11:16;;;;;;;4.30;3.53;;;10.70;99.90;;;;;;6224587;28;20639;-75
2021/09/21 01:14:19;;;;;;;3.30;2.87;;;10.70;99.90;;;;;;6224261;28;20202;-75
2021/09/21 01:17:21;;;;;;;4.17;3.67;;;10.60;99.90;;;;;;6224351;28;20209;-75
2021/09/21 01:20:23;;;;;;;4.10;3.70;;;10.70;99.90;;;;;;6223197;28;20196;-75
2021/09/21 01:23:25;;;;;;;3.30;3.00;;;10.70;99.90;;;;;;6224223;28;20181;-75
2021/09/21 01:26:28;;;;;;;4.03;3.73;;;10.70;99.90;;;;;;6224282;28;20235;-75
2021/09/21 01:29:30;;;;;;;5.63;3.67;;;10.70;99.90;;;;;;6224110;28;20194;-75
2021/09/21 01:32:32;;;;;;;3.63;3.27;;;10.70;99.90;;;;;;6224164;28;20213;-75
2021/09/21 01:35:35;;;;;;;3.90;3.50;;;10.70;99.90;;;;;;6222719;28;20726;-75
2021/09/21 01:38:38;;;;;;;3.83;3.53;;;10.70;99.90;;;;;;6239053;28;20235;-75
2021/09/21 01:41:40;;;;;;;3.57;3.27;;;10.70;99.90;;;;;;6223804;28;20191;-75
2021/09/21 01:44:42;;;;;;;3.07;2.77;;;10.70;99.90;;;;;;6222417;28;20194;-75
2021/09/21 01:47:47;;;;;;;4.80;3.20;;;10.60;99.90;;;;;;6223766;28;20195;-75
2021/09/21 01:50:59;;;;;;;7.03;3.80;;;10.60;99.90;;;;;;6223463;28;20569;-75
2021/09/21 02:01:03;;;;;;;3.70;3.30;;;10.60;99.90;;;;;;6232198;28;20240;-75
2021/09/21 02:04:08;;;;;;;3.83;3.43;;;10.60;99.90;;;;;;6223438;28;20640;-75
2021/09/21 02:07:10;;;;;;;4.10;3.70;;;10.50;99.90;;;;;;6223166;28;20225;-75
2021/09/21 02:10:12;;;;;;;5.03;3.83;;;10.50;99.90;;;;;;6223425;28;20615;-75
2021/09/21 02:13:15;;;;;;;3.67;3.37;;;10.50;99.90;;;;;;6223153;28;20192;-75
2021/09/21 02:16:17;;;;;;;4.00;3.53;;;10.50;99.90;;;;;;6222045;28;20286;-75
2021/09/21 02:19:19;;;;;;;4.53;3.60;;;10.50;99.90;;;;;;6222957;28;20220;-75
2021/09/21 02:22:22;;;;;;;5.77;3.70;;;10.50;99.90;;;;;;6205508;28;20292;-75
2021/09/21 02:25:24;;;;;;;4.53;3.47;;;10.50;99.90;;;;;;6222032;28;20181;-75
2021/09/21 02:28:28;;;;;;;3.70;3.37;;;10.40;99.90;;;;;;6221524;28;20648;-75
2021/09/21 02:31:31;;;;;;;4.50;3.50;;;10.40;99.90;;;;;;6223082;28;20196;-75
2021/09/21 02:34:33;;;;;;;4.23;3.83;;;10.40;99.90;;;;;;6213401;28;20355;-75
2021/09/21 02:37:35;;;;;;;7.83;3.90;;;10.40;99.90;;;;;;6223870;28;20213;-75
2021/09/21 02:40:37;;;;;;;4.23;3.43;;;10.40;99.90;;;;;;6213029;28;20188;-75
2021/09/21 02:43:40;;;;;;;5.37;3.87;;;10.40;99.90;;;;;;6221502;28;20185;-75
2021/09/21 02:46:42;;;;;;;4.57;4.00;;;10.40;99.90;;;;;;6221086;28;20192;-75
2021/09/21 02:49:44;;;;;;;3.47;3.07;;;10.40;99.90;;;;;;6221090;28;20743;-75
2021/09/21 02:52:46;;;;;;;4.30;3.87;;;10.40;99.90;;;;;;6222245;28;20231;-75
2021/09/21 02:55:49;;;;;;;4.63;4.20;;;10.40;99.90;;;;;;6221170;28;20251;-75
2021/09/21 02:58:51;;;;;;;4.37;3.97;;;10.50;99.90;;;;;;6225318;28;20564;-75
2021/09/21 03:01:53;;;;;;;4.20;3.47;;;10.40;99.90;;;;;;6246051;28;20235;-75
2021/09/21 03:04:59;;;;;;;4.70;3.70;;;10.50;99.90;;;;;;6227982;28;20196;-75
2021/09/21 03:08:10;;;;;;;5.73;3.60;;;10.40;99.90;;;;;;6246414;28;20196;-75
2021/09/21 03:17:35;;;;;;;4.40;4.00;;;10.50;99.90;;;;;;6228465;28;20212;-75
2021/09/21 03:20:37;;;;;;;4.13;3.73;;;10.40;99.90;;;;;;6245972;28;20727;-75
2021/09/21 03:23:40;;;;;;;4.33;3.80;;;10.40;99.90;;;;;;6246296;28;20181;-75
2021/09/21 03:26:42;;;;;;;3.80;3.50;;;10.40;99.90;;;;;;6244891;28;20184;-75
2021/09/21 03:29:45;;;;;;;6.13;4.07;;;10.40;99.90;;;;;;6246307;28;20274;-75
2021/09/21 03:32:47;;;;;;;5.27;3.47;;;10.40;99.90;;;;;;6245979;28;20274;-75
2021/09/21 03:35:49;;;;;;;5.43;4.40;;;10.40;99.90;;;;;;6228047;28;20654;-75
2021/09/21 03:38:51;;;;;;;5.40;4.57;;;10.40;99.90;;;;;;6245860;28;20208;-75
2021/09/21 03:41:54;;;;;;;5.33;4.20;;;10.30;99.90;;;;;;6244544;28;20215;-75
2021/09/21 03:44:56;;;;;;;4.43;4.00;;;10.30;99.90;;;;;;6244593;28;20286;-75
2021/09/21 03:47:58;;;;;;;4.83;4.33;;;10.30;99.90;;;;;;6244269;28;20610;-75
2021/09/21 03:51:00;;;;;;;5.43;4.37;;;10.30;99.90;;;;;;6245882;28;20195;-75
2021/09/21 03:54:04;;;;;;;4.70;4.00;;;10.30;99.90;;;;;;6245997;28;20222;-75
2021/09/21 03:57:07;;;;;;;5.43;3.97;;;10.30;99.90;;;;;;6245254;28;20218;-75
2021/09/21 04:00:10;;;;;;;4.60;4.20;;;10.30;99.90;;;;;;6236367;28;20311;-75
2021/09/21 04:03:12;;;;;;;4.50;4.10;;;10.30;99.90;;;;;;6246061;28;20640;-75
2021/09/21 04:06:14;;;;;;;5.63;4.33;;;10.30;99.90;;;;;;6243876;28;20655;-75
2021/09/21 04:09:17;;;;;;;5.10;4.60;;;10.30;99.90;;;;;;6244204;28;20252;-75
2021/09/21 04:12:19;;;;;;;5.90;4.73;;;10.30;99.90;;;;;;6245313;28;20199;-75
2021/09/21 04:15:22;;;;;;;4.67;4.10;;;10.30;99.90;;;;;;6246705;28;20195;-75
2021/09/21 04:18:24;;;;;;;4.67;4.10;;;10.40;99.90;;;;;;6249269;28;20224;-75
2021/09/21 04:21:27;;;;;;;4.67;4.17;;;10.40;99.90;;;;;;6249101;28;20326;-75
2021/09/21 04:24:29;;;;;;;6.23;4.60;;;10.40;99.90;;;;;;6248880;28;20594;-75
2021/09/21 04:27:32;;;;;;;4.33;3.93;;;10.40;99.90;;;;;;6248996;28;20204;-75
2021/09/21 04:30:35;;;;;;;4.53;4.10;;;10.40;99.90;;;;;;6254642;28;20200;-75
2021/09/21 04:33:45;;;;;;;4.90;4.30;;;10.50;99.90;;;;;;6248490;28;20208;-75
2021/09/21 04:36:47;;;;;;;4.73;4.17;;;10.40;99.90;;;;;;6250249;28;20196;-75
2021/09/21 04:39:50;;;;;;;4.33;3.80;;;10.40;99.90;;;;;;6232496;28;20219;-75
2021/09/21 04:42:52;;;;;;;6.23;4.40;;;10.40;99.90;;;;;;6249565;28;20186;-75
2021/09/21 04:45:54;;;;;;;3.63;3.33;;;10.40;99.90;;;;;;6249792;28;20250;-75
2021/09/21 04:48:57;;;;;;;6.13;3.77;;;10.40;99.90;;;;;;6249553;28;20198;-75
2021/09/21 04:51:59;;;;;;;5.60;4.20;;;10.40;99.90;;;;;;6232346;28;20298;-75
2021/09/21 04:55:02;;;;;;;4.40;4.00;;;10.40;99.90;;;;;;6249843;28;20350;-75
2021/09/21 04:58:04;;;;;;;4.43;3.90;;;10.50;99.90;;;;;;6249157;28;20220;-75
2021/09/21 05:01:06;;;;;;;4.30;3.90;;;10.50;99.90;;;;;;6260992;28;20330;-75
2021/09/21 05:04:09;;;;;;;4.67;3.90;;;10.50;99.90;;;;;;6249118;28;20319;-75
2021/09/21 05:07:11;;;;;;;7.13;4.20;;;10.50;99.90;;;;;;6249316;28;20196;-75
2021/09/21 05:10:13;;;;;;;5.13;4.27;;;10.50;99.90;;;;;;6248972;28;20677;-75
2021/09/21 05:13:16;;;;;;;5.83;3.90;;;10.50;99.90;;;;;;6247769;28;20205;-75
2021/09/21 05:16:18;;;;;;;5.33;4.13;;;10.40;99.90;;;;;;6247343;28;20200;-75
2021/09/21 05:19:20;;;;;;;4.20;3.80;;;10.50;99.90;;;;;;6248445;28;20299;-75
2021/09/21 05:22:23;;;;;;;5.77;4.33;;;10.50;99.90;;;;;;6230944;28;20576;-75
2021/09/21 05:25:28;;;;;;;4.20;3.80;;;10.50;99.90;;;;;;6231330;28;20267;-75
2021/09/21 05:28:30;;;;;;;6.03;4.33;;;10.50;99.90;;;;;;6247399;28;20218;-75
2021/09/21 05:31:36;;;;;;;5.30;3.90;;;10.50;99.90;;;;;;6247219;28;20271;-75
2021/09/21 05:34:38;;;;;;;5.07;4.10;;;10.50;99.90;;;;;;6246768;28;20203;-75
2021/09/21 05:37:40;;;;;;;4.13;3.73;;;10.50;99.90;;;;;;6247085;28;20227;-75
2021/09/21 05:40:43;;;;;;;4.47;4.07;;;10.60;99.90;;;;;;6230049;28;20201;-75
2021/09/21 05:43:46;;;;;;;4.10;3.70;;;10.60;99.90;;;;;;6246713;28;20200;-75
2021/09/21 05:46:48;;;;;;;4.13;3.73;;;10.60;99.90;;;;;;6246733;28;20192;-75
2021/09/21 05:49:51;;;;;;;4.30;3.90;;;10.70;99.90;;;;;;6247894;28;20204;-75
2021/09/21 05:52:53;;;;;;;5.60;3.80;;;10.70;99.90;;;;;;6247852;28;20189;-75
2021/09/21 05:55:55;;;;;;;4.13;3.77;;;10.80;99.90;;;;;;6247706;28;20276;-75
2021/09/21 05:58:58;;;;;;;4.43;4.03;;;10.80;99.90;;;;;;6230143;28;20215;-75
2021/09/21 06:02:00;;;;;;;4.50;4.10;;;10.90;99.90;;;;;;6238111;28;20717;-75
2021/09/21 06:05:04;;;;;;;5.73;4.30;;;10.90;99.90;;;;;;6221689;28;20579;-75
2021/09/21 06:08:06;;;;;;;4.77;4.33;;;11.00;99.90;;;;;;6223675;28;20727;-75
2021/09/21 06:11:09;;;;;;;4.57;3.90;;;10.90;99.90;;;;;;6223524;28;20243;-75
2021/09/21 06:14:11;;;;;;;4.13;3.67;;;11.00;99.90;;;;;;6222752;28;20584;-75
2021/09/21 06:17:13;;;;;;;4.53;4.13;;;11.00;99.90;;;;;;6222899;28;20648;-75
2021/09/21 06:20:17;;;;;;;4.20;3.50;;;11.10;99.90;;;;;;6222513;28;20220;-75
2021/09/21 06:23:19;;;;;;;4.23;3.67;;;11.10;99.90;;;;;;6222654;28;20196;-75
2021/09/21 06:26:22;;;;;;;4.90;3.40;;;11.20;99.90;;;;;;6221178;28;20197;-75
2021/09/21 06:29:24;;;;;;;4.33;3.80;;;11.20;99.90;;;;;;6222376;28;20275;-75
2021/09/21 06:32:26;;;;;;;4.20;3.70;;;11.30;99.90;;;;;;6213052;28;20205;-75
2021/09/21 06:35:29;;;;;;;4.10;3.70;;;11.30;99.90;;;;;;6216623;28;20658;-75
2021/09/21 06:38:34;;;;;;;4.63;3.97;;;11.40;99.90;;;;;;6222209;28;20210;-75
2021/09/21 06:41:36;;;;;;;4.20;3.80;;;11.40;99.90;;;;;;6222152;28;20273;-75
2021/09/21 06:44:39;;;;;;;4.80;4.20;;;11.40;99.90;;;;;;6222446;28;20192;-75
2021/09/21 06:47:42;;;;;;;4.13;3.73;;;11.40;99.90;;;;;;6220695;28;20285;-75
2021/09/21 06:50:44;;;;;;;4.20;3.80;;;11.50;99.90;;;;;;6221912;28;20305;-75
2021/09/21 06:53:46;;;;;;;6.33;3.70;;;11.60;99.90;;;;;;6235799;28;20198;-75
2021/09/21 06:56:49;;;;;;;3.83;3.37;;;11.60;99.90;;;;;;6220561;28;20238;-75
2021/09/21 06:59:52;;;;;;;6.27;4.57;;;11.70;99.90;;;;;;6223197;28;20235;-75
2021/09/21 07:02:55;;;;;;;4.07;3.60;;;11.70;99.90;;;;;;6246269;28;20199;-75
2021/09/21 07:05:58;;;;;;;4.10;3.70;;;11.80;99.90;;;;;;6244757;28;20194;-75
2021/09/21 07:09:00;;;;;;;3.83;3.53;;;11.90;99.90;;;;;;6245212;28;20252;-75
2021/09/21 07:12:03;;;;;;;4.10;3.70;;;11.90;99.90;;;;;;6245160;28;20268;-75
2021/09/21 07:15:07;;;;;;;5.57;4.97;;;12.00;99.90;;;;;;6244844;28;20237;-75
2021/09/21 07:18:09;;;;;;;6.97;4.93;;;12.10;99.90;;;;;;6244272;28;20220;-75
2021/09/21 07:21:11;;;;;;;7.30;4.73;;;12.10;99.90;;;;;;6245986;28;20553;-75
2021/09/21 07:24:15;;;;;;;7.20;5.27;;;12.20;99.90;;;;;;6227795;28;20198;-75
2021/09/21 07:27:18;;;;;;;5.00;4.50;;;12.20;99.90;;;;;;6245904;28;20222;-76
2021/09/21 07:30:21;;;;;;;5.63;4.87;;;12.30;99.90;;;;;;6244431;28;20585;-75
2021/09/21 07:33:23;;;;;;;6.10;4.93;;;12.40;99.90;;;;;;6227789;28;20201;-75
2021/09/21 07:36:25;;;;;;;5.60;4.13;;;12.50;99.90;;;;;;6244531;28;20203;-76
2021/09/21 07:39:28;;;;;;;5.60;4.50;;;12.60;99.90;;;;;;6245410;28;20207;-75
2021/09/21 07:42:30;;;;;;;5.83;4.30;;;12.70;99.90;;;;;;6245499;28;20641;-75
2021/09/21 07:45:34;;;;;;;5.60;5.00;;;12.80;99.90;;;;;;6243992;28;20281;-75
2021/09/21 07:48:36;;;;;;;5.10;4.60;;;12.80;99.90;;;;;;6242493;28;20677;-75
2021/09/21 07:51:38;;;;;;;5.13;4.60;;;12.90;99.90;;;;;;6244813;28;20198;-75
2021/09/21 07:54:40;;;;;;;5.23;4.27;;;13.00;99.90;;;;;;6244894;28;20203;-76
2021/09/21 07:57:43;;;;;;;5.40;4.40;;;13.10;99.90;;;;;;6228014;28;20652;-76
2021/09/21 08:00:51;;;;;;;6.73;4.43;;;13.20;99.90;;;;;;6250172;28;20237;-76
2021/09/21 08:03:55;;;;;;;6.40;5.07;;;13.40;99.90;;;;;;6245647;28;20198;-75
2021/09/21 08:06:57;;;;;;;6.43;5.70;;;13.60;99.90;;;;;;6243747;28;20621;-76
2021/09/21 08:10:00;;;;;;;6.57;4.40;;;13.60;99.90;;;;;;6227459;28;20564;-76
2021/09/21 08:13:03;;;;;;;6.07;4.03;;;13.70;99.90;;;;;;6227354;28;20206;-75
2021/09/21 08:16:05;;;;;;;4.67;3.93;;;13.80;99.90;;;;;;6243493;28;20199;-75
2021/09/21 08:19:09;;;;;;;5.13;3.93;;;13.90;99.90;;;;;;6219137;28;20757;-75
2021/09/21 08:22:11;;;;;;;5.17;4.43;;;14.20;99.90;;;;;;6227262;28;20207;-75
2021/09/21 08:25:14;;;;;;;5.07;4.03;;;14.30;99.90;;;;;;6243584;28;20300;-76
2021/09/21 08:28:17;;;;;;;5.27;4.27;;;14.60;99.90;;;;;;6243513;28;20291;-75
2021/09/21 08:31:19;;;;;;;4.80;3.57;;;14.70;99.90;;;;;;6242796;28;20188;-76
2021/09/21 08:34:23;;;;;;;4.93;4.40;;;14.80;99.90;;;;;;6243850;28;20195;-76
2021/09/21 08:37:25;;;;;;;6.17;4.23;;;14.90;99.90;;;;;;6245128;28;20192;-76
2021/09/21 08:40:28;;;;;;;5.07;3.77;;;15.00;99.90;;;;;;6243395;28;20579;-75
2021/09/21 08:43:30;;;;;;;5.00;3.87;;;15.10;99.90;;;;;;6243699;28;20574;-76
2021/09/21 08:46:32;;;;;;;4.00;3.50;;;15.20;99.90;;;;;;6243684;28;20188;-76
2021/09/21 08:49:35;;;;;;;4.10;3.50;;;15.20;99.90;;;;;;6244796;28;20192;-75
2021/09/21 08:52:40;;;;;;;4.63;3.47;;;15.30;99.90;;;;;;6243131;28;20196;-76
2021/09/21 08:55:43;;;;;;;5.33;3.80;;;15.30;99.90;;;;;;6226977;28;20204;-76
2021/09/21 08:58:56;;;;;;;5.00;3.10;;;15.30;99.80;;;;;;6227002;28;20258;-75
2021/09/21 09:02:05;;;;;;;4.80;3.90;;;15.30;99.70;;;;;;6243979;28;20692;-76
2021/09/21 09:05:10;;;;;;;4.13;3.20;;;15.30;99.10;;;;;;6247754;28;20199;-75
2021/09/21 09:08:12;;;;;;;4.83;3.50;;;15.30;99.40;;;;;;6248636;28;20190;-76
2021/09/21 09:11:24;;;;;;;7.10;4.23;;;15.30;99.10;;;;;;6249095;28;20188;-76
2021/09/21 09:14:35;;;;;;;5.00;3.60;;;15.20;98.90;;;;;;6248518;28;20193;-76
2021/09/21 09:17:38;;;;;;;5.47;3.53;;;15.20;99.30;;;;;;6249222;28;20287;-76
2021/09/21 09:20:44;;;;;;;4.47;4.07;;;15.20;99.50;;;;;;6231166;28;20212;-76
2021/09/21 09:23:53;;;;;;;6.73;4.23;;;15.20;99.00;;;;;;6248428;28;20214;-75
2021/09/21 09:26:55;;;;;;;4.37;3.67;;;15.20;99.30;;;;;;6247399;28;20694;-75
2021/09/21 09:30:00;;;;;;;6.13;3.70;;;15.20;99.00;;;;;;6235048;28;20204;-76
2021/09/21 09:33:03;;;;;;;5.30;3.50;;;15.30;98.80;;;;;;6231001;28;20674;-76
2021/09/21 09:36:06;;;;;;;5.47;3.83;;;15.40;98.50;;;;;;6248302;28;20606;-76
2021/09/21 09:39:08;;;;;;;5.00;3.93;;;15.30;98.90;;;;;;6248125;28;20219;-76
2021/09/21 09:42:12;;;;;;;5.03;4.00;;;15.30;98.50;;;;;;6248117;28;20188;-76
2021/09/21 09:45:30;;;;;;;3.93;3.40;;;15.30;98.10;;;;;;6248324;28;20271;-76
2021/09/21 09:48:33;;;;;;;6.53;3.70;;;15.40;99.00;;;;;;6246787;28;20189;-76
2021/09/21 09:51:44;;;;;;;3.97;3.60;;;15.70;98.80;;;;;;6247662;28;20184;-76
2021/09/21 09:54:48;;;;;;;4.17;3.77;;;15.90;98.00;;;;;;6222404;28;20653;-76
2021/09/21 09:57:50;;;;;;;4.90;3.30;;;16.10;97.20;;;;;;6232974;28;20728;-76
2021/09/21 10:00:54;;;;;;;7.17;3.33;;;16.20;97.20;;;;;;6241093;28;20612;-76
2021/09/21 10:03:58;;;;;;;4.53;3.27;;;16.20;95.90;;;;;;6246487;28;20197;-76
2021/09/21 10:07:01;;;;;;;4.53;3.60;;;16.20;95.90;;;;;;6247712;28;20184;-76
2021/09/21 10:10:04;;;;;;;3.77;3.30;;;16.20;96.10;;;;;;6246355;28;20192;-76
2021/09/21 10:13:12;;;;;;;4.90;3.37;;;16.40;96.20;;;;;;6246908;28;20283;-76
2021/09/21 10:16:14;;;;;;;5.30;3.00;;;16.60;95.40;;;;;;6247067;28;20671;-76
2021/09/21 10:19:22;;;;;;;3.93;3.40;;;17.00;95.40;;;;;;6246562;28;20208;-76
2021/09/21 10:22:29;;;;;;;3.50;3.07;;;17.20;94.30;;;;;;6229236;28;20680;-76
2021/09/21 10:25:35;;;;;;;3.47;3.03;;;17.30;94.80;;;;;;6229120;28;20195;-75
2021/09/21 10:28:57;;;;;;;4.20;2.57;;;17.40;92.60;;;;;;6229019;28;20211;-76
2021/09/21 10:32:00;;;;;;;3.23;2.83;;;17.60;92.60;;;;;;6245773;28;20200;-76
2021/09/21 10:35:09;;;;;;;3.93;2.73;;;17.50;90.30;;;;;;6246030;28;20194;-76
2021/09/21 10:38:12;;;;;;;3.93;2.53;;;17.80;90.70;;;;;;6246803;28;20542;-76
2021/09/21 10:41:14;;;;;;;3.73;2.63;;;18.20;90.10;;;;;;6245266;28;20254;-76
2021/09/21 10:44:18;;;;;;;2.60;2.40;;;18.70;87.10;;;;;;6245936;28;20202;-76
2021/09/21 10:47:24;;;;;;;2.57;2.27;;;18.90;77.40;;;;;;6246479;28;20338;-76
2021/09/21 10:50:29;;;;;;;3.60;2.50;;;18.70;80.00;;;;;;6245741;28;20204;-76
2021/09/21 10:53:31;;;;;;;3.57;2.50;;;18.50;80.30;;;;;;6246012;28;20191;-76
2021/09/21 10:56:40;;;;;;;3.33;2.70;;;18.20;79.50;;;;;;6246289;28;20200;-76
2021/09/21 11:00:07;;;;;;;2.67;2.10;;;17.90;78.80;;;;;;6245884;28;20204;-76
2021/09/21 11:03:13;;;;;;;4.23;2.40;;;18.00;82.80;;;;;;6244810;28;20200;-76
2021/09/21 11:06:16;;;;;;;2.33;2.13;;;18.30;80.00;;;;;;6244959;28;20176;-76
2021/09/21 11:09:25;;;;;;;4.40;2.23;;;18.70;79.70;;;;;;6246197;28;20200;-76
2021/09/21 11:12:28;;;;;;;1.80;1.70;;;18.80;76.30;;;;;;6245125;28;20263;-77
2021/09/21 11:15:30;;;;;;;2.23;1.50;;;18.70;71.60;;;;;;6244536;28;20210;-77
2021/09/21 11:18:32;;;;;;;1.63;1.37;;;19.00;62.00;;;;;;6245881;28;20196;-76
2021/09/21 11:21:35;;;;;;;3.40;2.43;;;19.60;61.90;;;;;;6245849;28;20214;-76
2021/09/21 11:24:38;;;;;;;2.20;2.00;;;20.00;63.20;;;;;;6245036;28;20191;-76
2021/09/21 11:27:42;;;;;;;1.70;1.60;;;20.20;61.60;;;;;;6228022;28;20682;-76
2021/09/21 11:30:46;;;;;;;2.00;1.73;;;20.00;58.70;;;;;;6253294;28;20192;-76
2021/09/21 11:33:51;;;;;;;4.63;1.93;;;19.60;58.30;;;;;;6245805;28;20564;-76
2021/09/21 11:36:54;;;;;;;3.10;1.60;;;19.70;59.90;;;;;;6245614;28;20637;-76
2021/09/21 11:39:57;;;;;;;2.00;1.80;;;19.60;59.40;;;;;;6245642;28;20322;-76
2021/09/21 11:43:00;;;;;;;2.27;1.70;;;19.50;62.00;;;;;;6245396;28;20189;-76
2021/09/21 11:46:03;;;;;;;1.70;1.60;;;19.70;60.10;;;;;;6245643;28;20196;-76
2021/09/21 11:49:06;;;;;;;1.63;1.53;;;19.90;59.20;;;;;;6245813;28;20195;-77
2021/09/21 11:52:09;;;;;;;3.37;1.70;;;19.90;58.60;;;;;;6229629;28;20204;-76
2021/09/21 11:55:14;;;;;;;1.50;1.40;;;19.80;58.60;;;;;;6219709;28;20490;-76
2021/09/21 11:58:17;;;;;;;1.80;1.23;;;19.70;57.30;;;;;;6213311;28;20275;-77
2021/09/21 12:01:20;;;;;;;1.93;1.60;;;19.70;55.70;;;;;;6245000;28;20223;-76
2021/09/21 12:04:22;;;;;;;1.50;1.40;;;19.50;56.50;;;;;;6245454;28;20195;-76
2021/09/21 12:07:26;;;;;;;2.07;1.73;;;19.20;55.50;;;;;;6245679;28;20208;-76
2021/09/21 12:10:29;;;;;;;1.80;1.60;;;18.90;56.90;;;;;;6227570;28;20199;-76
2021/09/21 12:13:31;;;;;;;1.63;1.50;;;18.70;57.40;;;;;;6243721;28;20685;-76
2021/09/21 12:16:34;;;;;;;4.63;1.83;;;18.60;57.80;;;;;;6245451;28;20188;-76
2021/09/21 12:19:42;;;;;;;5.67;1.63;;;18.80;58.80;;;;;;6243622;28;20235;-76
2021/09/21 12:22:53;;;;;;;2.47;1.90;;;18.90;57.40;;;;;;6245048;28;20314;-76
2021/09/21 12:25:57;;;;;;;2.40;2.03;;;18.70;57.40;;;;;;6227543;28;20662;-76
2021/09/21 12:29:00;;;;;;;2.10;1.90;;;19.10;58.50;;;;;;6243567;28;20249;-76
2021/09/21 12:32:04;;;;;;;2.20;2.00;;;19.50;58.50;;;;;;6243812;28;20188;-76
2021/09/21 12:35:09;;;;;;;3.00;2.70;;;19.60;57.70;;;;;;6244801;28;20643;-76
2021/09/21 12:38:17;;;;;;;2.63;2.43;;;19.20;58.00;;;;;;6249411;28;20192;-76
2021/09/21 12:41:19;;;;;;;2.70;2.13;;;18.90;58.20;;;;;;6223680;28;20625;-76
2021/09/21 12:44:26;;;;;;;3.47;2.23;;;18.80;60.50;;;;;;6237758;28;20563;-76
2021/09/21 12:47:29;;;;;;;2.30;2.10;;;18.70;58.60;;;;;;6242707;28;20246;-76
2021/09/21 12:50:32;;;;;;;2.00;1.80;;;18.80;61.10;;;;;;6248018;28;20196;-76
2021/09/21 12:53:35;;;;;;;2.20;2.00;;;18.90;61.00;;;;;;6231663;28;20714;-76
2021/09/21 12:56:41;;;;;;;2.60;2.40;;;19.00;58.20;;;;;;6231248;28;20188;-76
2021/09/21 12:59:53;;;;;;;2.23;2.03;;;18.80;59.60;;;;;;6249844;28;20235;-76
2021/09/21 13:02:56;;;;;;;3.10;1.97;;;18.90;59.60;;;;;;6249065;28;20195;-76
2021/09/21 13:05:58;;;;;;;3.57;2.33;;;18.80;62.00;;;;;;6248949;28;20202;-77
2021/09/21 13:09:01;;;;;;;2.47;2.27;;;18.60;59.70;;;;;;6249041;28;20659;-76
2021/09/21 13:12:05;;;;;;;2.40;2.20;;;18.50;59.90;;;;;;6247451;28;20573;-76
2021/09/21 13:15:09;;;;;;;2.60;2.20;;;18.20;60.90;;;;;;6247238;28;20281;-76
2021/09/21 13:18:11;;;;;;;2.40;2.20;;;18.20;61.30;;;;;;6222922;28;20197;-76
2021/09/21 13:21:14;;;;;;;2.40;1.93;;;18.20;62.60;;;;;;6230800;28;20214;-76
2021/09/21 13:24:18;;;;;;;2.20;2.00;;;18.30;62.50;;;;;;6230771;28;20212;-76
2021/09/21 13:27:20;;;;;;;2.53;2.00;;;18.30;62.20;;;;;;6248344;28;20275;-76
2021/09/21 13:30:23;;;;;;;2.33;2.13;;;18.30;62.60;;;;;;6247206;28;20200;-76
2021/09/21 13:33:25;;;;;;;1.93;1.70;;;18.30;61.60;;;;;;6231305;28;20507;-76
2021/09/21 13:36:28;;;;;;;2.90;1.83;;;18.30;63.30;;;;;;6247140;28;20659;-76
2021/09/21 13:39:30;;;;;;;3.27;2.43;;;18.20;62.10;;;;;;6230755;28;20706;-76
2021/09/21 13:42:33;;;;;;;2.67;1.70;;;18.10;62.50;;;;;;6246580;28;20204;-76
2021/09/21 13:45:35;;;;;;;4.47;2.40;;;17.90;65.40;;;;;;6230427;28;20271;-76
2021/09/21 13:48:40;;;;;;;2.50;1.97;;;17.70;63.40;;;;;;6247233;28;20188;-76
2021/09/21 13:51:42;;;;;;;6.33;2.10;;;17.40;62.80;;;;;;6230357;28;20591;-76
2021/09/21 13:54:45;;;;;;;2.53;2.30;;;17.40;64.40;;;;;;6230115;28;20585;-76
2021/09/21 13:57:48;;;;;;;2.30;2.10;;;17.50;64.30;;;;;;6246458;28;20195;-76
2021/09/21 14:00:50;;;;;;;2.43;2.20;;;17.50;63.30;;;;;;6247365;28;20240;-76
2021/09/21 14:03:52;;;;;;;3.43;2.20;;;17.60;62.80;;;;;;6247521;28;20195;-76
2021/09/21 14:06:55;;;;;;;2.40;1.70;;;17.60;62.90;;;;;;6248010;28;20199;-76
2021/09/21 14:09:57;;;;;;;2.43;2.03;;;17.60;64.10;;;;;;6246169;28;20680;-76
2021/09/21 14:13:00;;;;;;;2.10;1.90;;;17.70;64.50;;;;;;6229460;28;20204;-76
2021/09/21 14:16:02;;;;;;;2.47;2.23;;;17.70;66.10;;;;;;6247473;28;20207;-76
2021/09/21 14:19:04;;;;;;;2.00;1.90;;;17.70;65.60;;;;;;6247305;28;20560;-76
2021/09/21 14:22:07;;;;;;;4.53;2.10;;;17.70;65.90;;;;;;6247203;28;20234;-76
2021/09/21 14:25:10;;;;;;;3.27;2.50;;;17.60;64.20;;;;;;6229721;28;20203;-76
2021/09/21 14:28:12;;;;;;;2.63;2.23;;;17.40;64.10;;;;;;6247108;28;20187;-76
2021/09/21 14:31:15;;;;;;;2.60;1.87;;;17.30;66.00;;;;;;6245988;28;20200;-76
2021/09/21 14:34:18;;;;;;;2.13;1.93;;;17.20;66.90;;;;;;6246920;28;20200;-76
2021/09/21 14:37:21;;;;;;;2.30;2.10;;;17.20;66.30;;;;;;6229143;28;20272;-76
2021/09/21 14:40:25;;;;;;;2.50;1.80;;;17.30;67.10;;;;;;6246899;28;20236;-76
2021/09/21 14:43:27;;;;;;;3.47;2.17;;;17.30;66.10;;;;;;6246785;28;20270;-76
2021/09/21 14:46:30;;;;;;;2.50;1.93;;;17.40;65.70;;;;;;6246603;28;20188;-76
2021/09/21 14:49:32;;;;;;;2.13;1.93;;;17.50;66.20;;;;;;6245297;28;20278;-76
2021/09/21 14:52:35;;;;;;;1.87;1.77;;;17.70;65.30;;;;;;6245405;28;20192;-76
2021/09/21 14:55:38;;;;;;;2.17;1.97;;;17.80;64.60;;;;;;6220506;28;20576;-76
2021/09/21 14:58:43;;;;;;;2.20;2.00;;;17.70;62.60;;;;;;6241346;28;20191;-76
2021/09/21 15:01:45;;;;;;;2.20;1.70;;;17.50;64.50;;;;;;6228150;28;20236;-76
2021/09/21 15:04:49;;;;;;;2.43;1.80;;;17.30;63.10;;;;;;6234783;28;20194;-76
2021/09/21 15:07:51;;;;;;;1.87;1.77;;;17.20;66.00;;;;;;6246154;28;20663;-75
2021/09/21 15:10:53;;;;;;;3.07;2.07;;;17.10;66.90;;;;;;6244778;28;20199;-76
2021/09/21 15:13:56;;;;;;;2.30;2.10;;;16.90;67.80;;;;;;6245182;28;20203;-75
2021/09/21 15:16:58;;;;;;;1.83;1.50;;;16.90;66.30;;;;;;6228464;28;20287;-76
2021/09/21 15:20:02;;;;;;;5.03;4.53;;;16.80;66.80;;;;;;6246419;28;20682;-76
2021/09/21 15:23:05;;;;;;;4.50;3.70;;;16.80;67.30;;;;;;6244600;28;20203;-76
2021/09/21 15:26:08;;;;;;;3.70;2.43;;;16.70;68.00;;;;;;6244615;28;20199;-76
2021/09/21 15:29:11;;;;;;;3.13;2.27;;;16.60;69.40;;;;;;6244824;28;20338;-76
2021/09/21 15:32:16;;;;;;;1.97;1.80;;;16.60;68.50;;;;;;6219656;28;20644;-75
2021/09/21 15:35:19;;;;;;;2.07;1.60;;;16.60;69.60;;;;;;6228208;28;20199;-75
2021/09/21 15:38:22;;;;;;;3.07;2.10;;;16.50;71.00;;;;;;6245646;28;20191;-75
2021/09/21 15:41:24;;;;;;;2.07;1.87;;;16.40;70.70;;;;;;6244427;28;20207;-75
2021/09/21 15:44:30;;;;;;;3.83;2.03;;;16.40;70.90;;;;;;6244401;28;20202;-75
2021/09/21 15:47:33;;;;;;;2.00;1.63;;;16.40;71.50;;;;;;6244344;28;20227;-75
2021/09/21 15:50:36;;;;;;;3.67;1.80;;;16.40;71.90;;;;;;6243983;28;20340;-75
2021/09/21 15:53:39;;;;;;;2.00;1.80;;;16.40;72.40;;;;;;6245383;28;20644;-76
2021/09/21 15:56:42;;;;;;;1.50;1.40;;;16.40;75.20;;;;;;6245097;28;20195;-75
2021/09/21 15:59:44;;;;;;;4.83;2.03;;;16.30;77.60;;;;;;6244946;28;20228;-75
2021/09/21 16:02:47;;;;;;;1.80;1.63;;;16.20;78.50;;;;;;6245237;28;20234;-75
2021/09/21 16:05:50;;;;;;;1.97;1.80;;;16.10;78.60;;;;;;6244030;28;20778;-76
2021/09/21 16:08:53;;;;;;;6.07;1.83;;;16.00;79.60;;;;;;6245031;28;20188;-76